sensor_id;sensor_type;location;lat;lon;timestamp;noise_LAeq;noise_LA_min;noise_LA_max;noise_LA01;noise_LA95
77729;Laerm;68312;53.502;10.030;2023-03-31T00:00:44;46.59;42.30;53.51;;
77729;Laerm;68312;53.502;10.030;2023-03-31T00:03:12;46.90;42.88;69.83;;
77729;Laerm;68312;53.502;10.030;2023-03-31T00:05:38;46.24;41.97;52.67;;
77729;Laerm;68312;53.502;10.030;2023-03-31T00:08:04;46.50;41.58;64.64;;
77729;Laerm;68312;53.502;10.030;2023-03-31T00:10:33;47.05;42.46;56.63;;
77729;Laerm;68312;53.502;10.030;2023-03-31T00:13:01;46.37;42.86;51.89;;
77729;Laerm;68312;53.502;10.030;2023-03-31T00:15:28;46.06;40.33;52.43;;
77729;Laerm;68312;53.502;10.030;2023-03-31T00:17:53;45.38;41.99;51.01;;
77729;Laerm;68312;53.502;10.030;2023-03-31T00:20:19;45.94;41.13;52.74;;
77729;Laerm;68312;53.502;10.030;2023-03-31T00:22:45;47.86;43.66;54.26;;
77729;Laerm;68312;53.502;10.030;2023-03-31T00:25:15;45.73;41.59;56.26;;
77729;Laerm;68312;53.502;10.030;2023-03-31T00:27:44;45.68;41.90;56.54;;
77729;Laerm;68312;53.502;10.030;2023-03-31T00:30:13;47.13;42.20;62.80;;
77729;Laerm;68312;53.502;10.030;2023-03-31T00:32:39;46.82;43.00;56.26;;
77729;Laerm;68312;53.502;10.030;2023-03-31T00:35:05;45.88;41.59;53.09;;
77729;Laerm;68312;53.502;10.030;2023-03-31T00:37:31;43.92;39.95;57.11;;
77729;Laerm;68312;53.502;10.030;2023-03-31T00:40:00;45.27;40.39;51.16;;
77729;Laerm;68312;53.502;10.030;2023-03-31T00:42:26;45.17;41.69;50.32;;
77729;Laerm;68312;53.502;10.030;2023-03-31T00:48:15;47.11;42.50;59.89;;
77729;Laerm;68312;53.502;10.030;2023-03-31T00:50:56;46.78;42.07;65.51;;
77729;Laerm;68312;53.502;10.030;2023-03-31T00:53:31;49.78;40.74;70.62;;
77729;Laerm;68312;53.502;10.030;2023-03-31T00:56:12;44.53;40.68;55.31;;
77729;Laerm;68312;53.502;10.030;2023-03-31T00:58:41;43.16;38.55;49.37;;
77729;Laerm;68312;53.502;10.030;2023-03-31T01:01:16;45.61;40.90;52.63;;
77729;Laerm;68312;53.502;10.030;2023-03-31T01:03:44;48.69;43.18;65.60;;
77729;Laerm;68312;53.502;10.030;2023-03-31T01:06:14;46.89;41.26;57.41;;
77729;Laerm;68312;53.502;10.030;2023-03-31T01:08:42;45.03;41.12;52.84;;
77729;Laerm;68312;53.502;10.030;2023-03-31T01:11:14;44.98;39.77;50.97;;
77729;Laerm;68312;53.502;10.030;2023-03-31T01:13:44;44.82;41.39;53.79;;
77729;Laerm;68312;53.502;10.030;2023-03-31T01:16:16;46.11;41.60;54.85;;
77729;Laerm;68312;53.502;10.030;2023-03-31T01:18:42;45.45;41.39;53.75;;
77729;Laerm;68312;53.502;10.030;2023-03-31T01:22:15;45.52;40.88;56.05;;
77729;Laerm;68312;53.502;10.030;2023-03-31T01:25:45;43.82;38.48;49.25;;
77729;Laerm;68312;53.502;10.030;2023-03-31T01:29:03;44.42;39.59;55.31;;
77729;Laerm;68312;53.502;10.030;2023-03-31T01:38:59;44.79;40.12;48.79;;
77729;Laerm;68312;53.502;10.030;2023-03-31T01:42:14;43.78;39.64;48.01;;
77729;Laerm;68312;53.502;10.030;2023-03-31T01:45:18;45.04;41.33;52.63;;
77729;Laerm;68312;53.502;10.030;2023-03-31T01:48:06;45.93;41.86;51.80;;
77729;Laerm;68312;53.502;10.030;2023-03-31T01:50:55;46.47;40.62;51.31;;
77729;Laerm;68312;53.502;10.030;2023-03-31T01:56:24;45.23;41.39;49.44;;
77729;Laerm;68312;53.502;10.030;2023-03-31T01:59:10;45.43;41.85;52.13;;
77729;Laerm;68312;53.502;10.030;2023-03-31T02:01:53;46.48;43.16;50.74;;
77729;Laerm;68312;53.502;10.030;2023-03-31T02:04:33;46.29;42.19;51.16;;
77729;Laerm;68312;53.502;10.030;2023-03-31T02:07:18;44.87;40.63;50.29;;
77729;Laerm;68312;53.502;10.030;2023-03-31T02:09:54;45.81;41.84;49.57;;
77729;Laerm;68312;53.502;10.030;2023-03-31T02:12:27;46.19;42.34;52.33;;
77729;Laerm;68312;53.502;10.030;2023-03-31T02:14:56;45.61;42.20;50.97;;
77729;Laerm;68312;53.502;10.030;2023-03-31T02:17:26;45.96;41.32;51.81;;
77729;Laerm;68312;53.502;10.030;2023-03-31T02:20:01;46.44;41.77;58.32;;
77729;Laerm;68312;53.502;10.030;2023-03-31T02:22:36;44.74;41.46;50.50;;
77729;Laerm;68312;53.502;10.030;2023-03-31T02:25:10;46.05;41.33;58.88;;
77729;Laerm;68312;53.502;10.030;2023-03-31T02:27:41;45.17;41.93;51.45;;
77729;Laerm;68312;53.502;10.030;2023-03-31T02:30:12;46.35;42.71;52.16;;
77729;Laerm;68312;53.502;10.030;2023-03-31T02:32:42;47.27;43.93;52.49;;
77729;Laerm;68312;53.502;10.030;2023-03-31T02:35:18;47.44;44.34;51.83;;
77729;Laerm;68312;53.502;10.030;2023-03-31T02:37:47;46.15;42.63;50.58;;
77729;Laerm;68312;53.502;10.030;2023-03-31T02:40:21;46.06;42.58;58.04;;
77729;Laerm;68312;53.502;10.030;2023-03-31T02:42:48;46.91;42.66;55.70;;
77729;Laerm;68312;53.502;10.030;2023-03-31T02:48:17;45.18;42.01;48.27;;
77729;Laerm;68312;53.502;10.030;2023-03-31T02:51:46;46.18;42.32;50.79;;
77729;Laerm;68312;53.502;10.030;2023-03-31T02:57:59;46.35;42.72;51.20;;
77729;Laerm;68312;53.502;10.030;2023-03-31T03:06:53;46.01;42.23;49.24;;
77729;Laerm;68312;53.502;10.030;2023-03-31T03:09:46;47.10;44.38;53.12;;
77729;Laerm;68312;53.502;10.030;2023-03-31T03:13:08;47.51;43.75;51.97;;
77729;Laerm;68312;53.502;10.030;2023-03-31T03:15:59;47.16;44.05;58.93;;
77729;Laerm;68312;53.502;10.030;2023-03-31T03:18:26;48.49;44.27;62.57;;
77729;Laerm;68312;53.502;10.030;2023-03-31T03:20:51;47.80;44.70;53.52;;
77729;Laerm;68312;53.502;10.030;2023-03-31T03:23:17;48.49;45.00;59.77;;
77729;Laerm;68312;53.502;10.030;2023-03-31T03:25:44;48.01;44.84;55.99;;
77729;Laerm;68312;53.502;10.030;2023-03-31T03:28:10;51.28;45.61;66.90;;
77729;Laerm;68312;53.502;10.030;2023-03-31T03:30:36;48.18;45.23;53.43;;
77729;Laerm;68312;53.502;10.030;2023-03-31T03:33:01;49.11;46.37;57.13;;
77729;Laerm;68312;53.502;10.030;2023-03-31T03:35:32;49.62;46.19;56.21;;
77729;Laerm;68312;53.502;10.030;2023-03-31T03:37:57;49.65;47.00;52.74;;
77729;Laerm;68312;53.502;10.030;2023-03-31T03:40:23;50.21;46.88;54.98;;
77729;Laerm;68312;53.502;10.030;2023-03-31T03:42:48;50.81;46.85;61.06;;
77729;Laerm;68312;53.502;10.030;2023-03-31T03:45:14;50.32;47.10;58.97;;
77729;Laerm;68312;53.502;10.030;2023-03-31T03:47:39;50.73;47.08;56.08;;
77729;Laerm;68312;53.502;10.030;2023-03-31T03:50:06;50.18;46.98;53.67;;
77729;Laerm;68312;53.502;10.030;2023-03-31T03:52:32;51.60;48.17;62.90;;
77729;Laerm;68312;53.502;10.030;2023-03-31T03:54:57;50.18;47.31;57.60;;
77729;Laerm;68312;53.502;10.030;2023-03-31T03:57:23;50.05;46.83;56.91;;
77729;Laerm;68312;53.502;10.030;2023-03-31T03:59:48;49.68;46.24;56.60;;
77729;Laerm;68312;53.502;10.030;2023-03-31T04:02:14;50.59;47.13;60.11;;
77729;Laerm;68312;53.502;10.030;2023-03-31T04:04:39;51.15;47.06;56.65;;
77729;Laerm;68312;53.502;10.030;2023-03-31T04:07:05;51.17;47.29;62.79;;
77729;Laerm;68312;53.502;10.030;2023-03-31T04:09:30;49.69;46.27;59.46;;
77729;Laerm;68312;53.502;10.030;2023-03-31T04:11:56;50.81;47.70;59.49;;
77729;Laerm;68312;53.502;10.030;2023-03-31T04:14:22;51.00;47.70;57.41;;
77729;Laerm;68312;53.502;10.030;2023-03-31T04:16:48;52.36;49.25;60.66;;
77729;Laerm;68312;53.502;10.030;2023-03-31T04:19:14;52.33;48.44;61.14;;
77729;Laerm;68312;53.502;10.030;2023-03-31T04:21:42;52.51;49.06;59.47;;
77729;Laerm;68312;53.502;10.030;2023-03-31T04:24:11;58.69;49.49;75.70;;
77729;Laerm;68312;53.502;10.030;2023-03-31T04:26:41;53.85;49.23;66.48;;
77729;Laerm;68312;53.502;10.030;2023-03-31T04:29:13;51.45;47.77;61.06;;
77729;Laerm;68312;53.502;10.030;2023-03-31T04:31:41;51.92;48.43;62.44;;
77729;Laerm;68312;53.502;10.030;2023-03-31T04:34:14;51.53;48.34;60.58;;
77729;Laerm;68312;53.502;10.030;2023-03-31T04:36:45;51.74;48.26;57.47;;
77729;Laerm;68312;53.502;10.030;2023-03-31T04:39:17;53.17;48.33;66.66;;
77729;Laerm;68312;53.502;10.030;2023-03-31T04:41:53;52.60;49.27;63.54;;
77729;Laerm;68312;53.502;10.030;2023-03-31T04:44:19;52.28;48.56;59.97;;
77729;Laerm;68312;53.502;10.030;2023-03-31T04:46:44;51.83;48.59;60.90;;
77729;Laerm;68312;53.502;10.030;2023-03-31T04:49:10;51.94;48.11;60.83;;
77729;Laerm;68312;53.502;10.030;2023-03-31T04:51:35;51.83;47.86;62.16;;
77729;Laerm;68312;53.502;10.030;2023-03-31T04:54:01;50.99;46.46;59.77;;
77729;Laerm;68312;53.502;10.030;2023-03-31T04:56:27;50.63;47.14;62.77;;
77729;Laerm;68312;53.502;10.030;2023-03-31T04:58:53;49.83;46.69;64.15;;
77729;Laerm;68312;53.502;10.030;2023-03-31T05:01:18;50.44;46.95;56.56;;
77729;Laerm;68312;53.502;10.030;2023-03-31T05:03:45;50.98;47.45;61.13;;
77729;Laerm;68312;53.502;10.030;2023-03-31T05:06:15;51.15;47.35;60.55;;
77729;Laerm;68312;53.502;10.030;2023-03-31T05:08:40;50.14;45.93;57.00;;
77729;Laerm;68312;53.502;10.030;2023-03-31T05:11:06;49.96;46.26;60.56;;
77729;Laerm;68312;53.502;10.030;2023-03-31T05:13:32;52.01;45.11;76.79;;
77729;Laerm;68312;53.502;10.030;2023-03-31T05:15:57;50.23;46.38;60.38;;
77729;Laerm;68312;53.502;10.030;2023-03-31T05:18:23;50.95;46.29;63.33;;
77729;Laerm;68312;53.502;10.030;2023-03-31T05:20:48;49.05;45.62;54.81;;
77729;Laerm;68312;53.502;10.030;2023-03-31T05:23:14;49.67;46.28;56.62;;
77729;Laerm;68312;53.502;10.030;2023-03-31T05:25:39;49.53;46.47;59.78;;
77729;Laerm;68312;53.502;10.030;2023-03-31T05:28:08;50.78;46.13;66.38;;
77729;Laerm;68312;53.502;10.030;2023-03-31T05:30:36;50.27;46.68;59.22;;
77729;Laerm;68312;53.502;10.030;2023-03-31T05:33:02;50.14;46.36;61.52;;
77729;Laerm;68312;53.502;10.030;2023-03-31T05:35:27;50.39;46.18;59.74;;
77729;Laerm;68312;53.502;10.030;2023-03-31T05:37:54;49.71;45.42;59.51;;
77729;Laerm;68312;53.502;10.030;2023-03-31T05:40:19;56.19;46.93;70.90;;
77729;Laerm;68312;53.502;10.030;2023-03-31T05:42:45;50.67;45.93;62.47;;
77729;Laerm;68312;53.502;10.030;2023-03-31T05:45:10;53.25;46.94;66.38;;
77729;Laerm;68312;53.502;10.030;2023-03-31T05:47:37;50.66;45.74;72.80;;
77729;Laerm;68312;53.502;10.030;2023-03-31T05:50:03;52.68;46.10;65.78;;
77729;Laerm;68312;53.502;10.030;2023-03-31T05:52:32;51.11;46.74;59.77;;
77729;Laerm;68312;53.502;10.030;2023-03-31T05:54:58;50.55;46.51;57.00;;
77729;Laerm;68312;53.502;10.030;2023-03-31T05:57:23;52.53;46.62;66.07;;
77729;Laerm;68312;53.502;10.030;2023-03-31T05:59:49;51.50;46.30;61.58;;
77729;Laerm;68312;53.502;10.030;2023-03-31T06:02:14;49.48;45.36;65.38;;
77729;Laerm;68312;53.502;10.030;2023-03-31T06:04:40;49.82;45.86;59.48;;
77729;Laerm;68312;53.502;10.030;2023-03-31T06:07:06;48.73;45.62;56.35;;
77729;Laerm;68312;53.502;10.030;2023-03-31T06:09:32;49.07;45.56;55.69;;
77729;Laerm;68312;53.502;10.030;2023-03-31T06:11:58;49.36;45.20;59.22;;
77729;Laerm;68312;53.502;10.030;2023-03-31T06:14:23;48.72;44.27;58.95;;
77729;Laerm;68312;53.502;10.030;2023-03-31T06:16:49;50.33;45.44;63.34;;
77729;Laerm;68312;53.502;10.030;2023-03-31T06:19:15;49.98;46.15;58.88;;
77729;Laerm;68312;53.502;10.030;2023-03-31T06:21:40;54.93;44.97;70.74;;
77729;Laerm;68312;53.502;10.030;2023-03-31T06:24:08;48.72;45.34;55.29;;
77729;Laerm;68312;53.502;10.030;2023-03-31T06:26:34;49.37;45.43;58.46;;
77729;Laerm;68312;53.502;10.030;2023-03-31T06:29:00;49.15;45.66;54.63;;
77729;Laerm;68312;53.502;10.030;2023-03-31T06:31:25;48.99;45.51;54.60;;
77729;Laerm;68312;53.502;10.030;2023-03-31T06:33:52;49.82;45.60;66.80;;
77729;Laerm;68312;53.502;10.030;2023-03-31T06:36:21;50.02;45.02;67.07;;
77729;Laerm;68312;53.502;10.030;2023-03-31T06:38:48;50.20;46.56;59.07;;
77729;Laerm;68312;53.502;10.030;2023-03-31T06:41:17;49.79;46.27;61.18;;
77729;Laerm;68312;53.502;10.030;2023-03-31T06:43:43;50.83;47.40;62.01;;
77729;Laerm;68312;53.502;10.030;2023-03-31T06:46:10;49.70;45.89;56.27;;
77729;Laerm;68312;53.502;10.030;2023-03-31T06:48:35;59.78;47.30;75.29;;
77729;Laerm;68312;53.502;10.030;2023-03-31T06:51:05;50.23;46.56;57.96;;
77729;Laerm;68312;53.502;10.030;2023-03-31T06:53:32;54.18;47.45;64.53;;
77729;Laerm;68312;53.502;10.030;2023-03-31T06:55:58;52.36;47.25;62.20;;
77729;Laerm;68312;53.502;10.030;2023-03-31T06:58:23;51.51;46.62;62.02;;
77729;Laerm;68312;53.502;10.030;2023-03-31T07:00:49;55.27;46.88;72.35;;
77729;Laerm;68312;53.502;10.030;2023-03-31T07:03:15;53.47;46.91;63.23;;
77729;Laerm;68312;53.502;10.030;2023-03-31T07:05:52;52.94;46.85;66.89;;
77729;Laerm;68312;53.502;10.030;2023-03-31T07:08:19;49.57;46.26;55.78;;
77729;Laerm;68312;53.502;10.030;2023-03-31T07:10:48;49.76;45.99;58.79;;
77729;Laerm;68312;53.502;10.030;2023-03-31T07:13:16;50.19;46.05;61.15;;
77729;Laerm;68312;53.502;10.030;2023-03-31T07:15:43;50.46;47.25;56.25;;
77729;Laerm;68312;53.502;10.030;2023-03-31T07:18:11;51.95;48.03;61.40;;
77729;Laerm;68312;53.502;10.030;2023-03-31T07:20:37;50.44;47.15;55.42;;
77729;Laerm;68312;53.502;10.030;2023-03-31T07:23:04;50.42;47.17;61.49;;
77729;Laerm;68312;53.502;10.030;2023-03-31T07:25:30;50.91;47.55;60.47;;
77729;Laerm;68312;53.502;10.030;2023-03-31T07:27:56;51.44;47.36;60.77;;
77729;Laerm;68312;53.502;10.030;2023-03-31T07:30:22;52.14;47.46;60.86;;
77729;Laerm;68312;53.502;10.030;2023-03-31T07:32:50;52.24;47.70;72.11;;
77729;Laerm;68312;53.502;10.030;2023-03-31T07:35:18;54.82;47.79;68.13;;
77729;Laerm;68312;53.502;10.030;2023-03-31T07:37:47;51.08;47.93;58.27;;
77729;Laerm;68312;53.502;10.030;2023-03-31T07:40:24;53.95;48.09;68.52;;
77729;Laerm;68312;53.502;10.030;2023-03-31T07:42:51;50.94;47.93;56.13;;
77729;Laerm;68312;53.502;10.030;2023-03-31T07:45:19;51.10;48.03;56.66;;
77729;Laerm;68312;53.502;10.030;2023-03-31T07:47:46;50.24;47.05;55.74;;
77729;Laerm;68312;53.502;10.030;2023-03-31T07:50:14;51.84;46.83;68.80;;
77729;Laerm;68312;53.502;10.030;2023-03-31T07:52:40;53.69;47.58;64.98;;
77729;Laerm;68312;53.502;10.030;2023-03-31T07:55:08;51.30;48.25;65.58;;
77729;Laerm;68312;53.502;10.030;2023-03-31T07:57:35;51.82;47.91;56.08;;
77729;Laerm;68312;53.502;10.030;2023-03-31T08:00:07;52.46;47.50;72.78;;
77729;Laerm;68312;53.502;10.030;2023-03-31T08:02:34;56.52;48.77;70.82;;
77729;Laerm;68312;53.502;10.030;2023-03-31T08:05:00;51.55;47.60;68.98;;
77729;Laerm;68312;53.502;10.030;2023-03-31T08:07:26;52.98;48.87;67.00;;
77729;Laerm;68312;53.502;10.030;2023-03-31T08:09:55;54.86;50.01;65.52;;
77729;Laerm;68312;53.502;10.030;2023-03-31T08:12:21;52.87;49.87;64.96;;
77729;Laerm;68312;53.502;10.030;2023-03-31T08:14:47;54.88;49.79;72.85;;
77729;Laerm;68312;53.502;10.030;2023-03-31T08:17:13;53.25;49.76;68.82;;
77729;Laerm;68312;53.502;10.030;2023-03-31T08:19:38;55.40;50.36;71.01;;
77729;Laerm;68312;53.502;10.030;2023-03-31T08:22:04;53.85;49.65;74.98;;
77729;Laerm;68312;53.502;10.030;2023-03-31T08:24:30;53.13;49.69;62.45;;
77729;Laerm;68312;53.502;10.030;2023-03-31T08:26:55;53.36;49.39;72.37;;
77729;Laerm;68312;53.502;10.030;2023-03-31T08:29:21;53.37;49.63;81.05;;
77729;Laerm;68312;53.502;10.030;2023-03-31T08:31:46;55.86;49.06;72.29;;
77729;Laerm;68312;53.502;10.030;2023-03-31T08:34:12;52.64;49.58;66.95;;
77729;Laerm;68312;53.502;10.030;2023-03-31T08:36:38;54.41;48.83;66.80;;
77729;Laerm;68312;53.502;10.030;2023-03-31T08:39:03;54.94;49.34;66.71;;
77729;Laerm;68312;53.502;10.030;2023-03-31T08:42:03;52.13;49.19;58.43;;
77729;Laerm;68312;53.502;10.030;2023-03-31T08:44:38;52.61;49.09;61.10;;
77729;Laerm;68312;53.502;10.030;2023-03-31T08:47:16;51.72;48.82;59.52;;
77729;Laerm;68312;53.502;10.030;2023-03-31T08:49:55;53.27;48.99;78.24;;
77729;Laerm;68312;53.502;10.030;2023-03-31T08:52:33;53.49;49.63;62.25;;
77729;Laerm;68312;53.502;10.030;2023-03-31T08:55:11;54.99;49.92;66.61;;
77729;Laerm;68312;53.502;10.030;2023-03-31T08:58:12;52.74;50.23;66.08;;
77729;Laerm;68312;53.502;10.030;2023-03-31T09:00:55;54.96;49.85;68.67;;
77729;Laerm;68312;53.502;10.030;2023-03-31T09:04:12;52.65;49.38;65.91;;
77729;Laerm;68312;53.502;10.030;2023-03-31T09:07:07;56.22;50.60;70.40;;
77729;Laerm;68312;53.502;10.030;2023-03-31T09:13:24;52.63;49.26;66.78;;
77729;Laerm;68312;53.502;10.030;2023-03-31T09:16:24;52.75;50.00;59.24;;
77729;Laerm;68312;53.502;10.030;2023-03-31T09:18:58;52.43;49.65;60.41;;
77729;Laerm;68312;53.502;10.030;2023-03-31T09:21:33;52.41;49.37;57.07;;
77729;Laerm;68312;53.502;10.030;2023-03-31T09:24:23;53.92;49.78;65.70;;
77729;Laerm;68312;53.502;10.030;2023-03-31T09:27:04;55.11;46.30;67.60;;
77729;Laerm;68312;53.502;10.030;2023-03-31T09:32:31;49.61;45.21;61.99;;
77729;Laerm;68312;53.502;10.030;2023-03-31T09:35:15;55.10;46.16;68.19;;
77729;Laerm;68312;53.502;10.030;2023-03-31T09:37:41;51.98;46.31;63.73;;
77729;Laerm;68312;53.502;10.030;2023-03-31T09:40:18;55.15;46.33;68.09;;
77729;Laerm;68312;53.502;10.030;2023-03-31T09:43:41;54.06;45.81;65.81;;
77729;Laerm;68312;53.502;10.030;2023-03-31T09:46:00;48.76;45.03;60.54;;
77729;Laerm;68312;53.502;10.030;2023-03-31T09:48:34;57.30;45.97;69.25;;
77729;Laerm;68312;53.502;10.030;2023-03-31T09:51:06;48.79;45.31;60.22;;
77729;Laerm;68312;53.502;10.030;2023-03-31T09:54:00;49.84;45.93;61.70;;
77729;Laerm;68312;53.502;10.030;2023-03-31T09:59:19;53.11;44.70;70.92;;
77729;Laerm;68312;53.502;10.030;2023-03-31T10:01:49;49.69;45.48;60.24;;
77729;Laerm;68312;53.502;10.030;2023-03-31T10:04:23;49.02;45.15;59.76;;
77729;Laerm;68312;53.502;10.030;2023-03-31T10:06:50;50.16;45.62;67.82;;
77729;Laerm;68312;53.502;10.030;2023-03-31T10:09:25;50.65;45.56;66.83;;
77729;Laerm;68312;53.502;10.030;2023-03-31T10:12:19;51.47;46.51;65.73;;
77729;Laerm;68312;53.502;10.030;2023-03-31T10:15:02;53.91;47.88;65.41;;
77729;Laerm;68312;53.502;10.030;2023-03-31T10:17:28;57.59;45.84;72.44;;
77729;Laerm;68312;53.502;10.030;2023-03-31T10:20:05;55.05;45.43;75.95;;
77729;Laerm;68312;53.502;10.030;2023-03-31T10:22:44;50.77;44.91;64.17;;
77729;Laerm;68312;53.502;10.030;2023-03-31T10:25:26;52.56;45.56;68.70;;
77729;Laerm;68312;53.502;10.030;2023-03-31T10:27:56;49.26;46.26;56.26;;
77729;Laerm;68312;53.502;10.030;2023-03-31T10:30:27;51.83;47.07;65.49;;
77729;Laerm;68312;53.502;10.030;2023-03-31T10:32:55;50.91;46.84;59.74;;
77729;Laerm;68312;53.502;10.030;2023-03-31T10:35:33;51.26;47.46;60.76;;
77729;Laerm;68312;53.502;10.030;2023-03-31T10:38:07;49.56;47.20;57.42;;
77729;Laerm;68312;53.502;10.030;2023-03-31T10:40:35;52.04;47.25;63.27;;
77729;Laerm;68312;53.502;10.030;2023-03-31T10:43:17;57.77;46.63;75.91;;
77729;Laerm;68312;53.502;10.030;2023-03-31T10:45:56;56.49;45.81;72.85;;
77729;Laerm;68312;53.502;10.030;2023-03-31T10:48:28;58.33;46.11;71.70;;
77729;Laerm;68312;53.502;10.030;2023-03-31T10:51:11;49.52;45.35;58.91;;
77729;Laerm;68312;53.502;10.030;2023-03-31T10:53:49;53.19;46.28;66.51;;
77729;Laerm;68312;53.502;10.030;2023-03-31T10:56:41;53.31;44.12;64.65;;
77729;Laerm;68312;53.502;10.030;2023-03-31T10:59:42;54.64;44.81;67.32;;
77729;Laerm;68312;53.502;10.030;2023-03-31T11:02:54;53.79;45.34;66.90;;
77729;Laerm;68312;53.502;10.030;2023-03-31T11:05:43;51.50;46.11;63.23;;
77729;Laerm;68312;53.502;10.030;2023-03-31T11:08:38;50.19;45.68;60.52;;
77729;Laerm;68312;53.502;10.030;2023-03-31T11:11:54;49.21;45.13;65.76;;
77729;Laerm;68312;53.502;10.030;2023-03-31T11:17:50;53.72;44.18;68.38;;
77729;Laerm;68312;53.502;10.030;2023-03-31T11:21:16;49.14;43.66;60.50;;
77729;Laerm;68312;53.502;10.030;2023-03-31T11:30:29;49.06;44.09;64.40;;
77729;Laerm;68312;53.502;10.030;2023-03-31T11:33:48;49.70;43.21;68.22;;
77729;Laerm;68312;53.502;10.030;2023-03-31T11:37:05;50.75;43.11;66.64;;
77729;Laerm;68312;53.502;10.030;2023-03-31T11:42:58;48.25;42.55;60.28;;
77729;Laerm;68312;53.502;10.030;2023-03-31T11:49:17;48.07;43.56;55.23;;
77729;Laerm;68312;53.502;10.030;2023-03-31T11:52:05;49.34;44.35;60.49;;
77729;Laerm;68312;53.502;10.030;2023-03-31T11:55:05;49.07;44.37;63.79;;
77729;Laerm;68312;53.502;10.030;2023-03-31T12:00:41;48.19;44.10;62.95;;
77729;Laerm;68312;53.502;10.030;2023-03-31T12:03:41;51.65;43.94;79.55;;
77729;Laerm;68312;53.502;10.030;2023-03-31T12:06:27;47.85;44.37;58.39;;
77729;Laerm;68312;53.502;10.030;2023-03-31T12:09:26;47.89;44.82;58.03;;
77729;Laerm;68312;53.502;10.030;2023-03-31T12:12:32;48.01;44.19;62.99;;
77729;Laerm;68312;53.502;10.030;2023-03-31T12:15:36;45.43;41.83;52.82;;
77729;Laerm;68312;53.502;10.030;2023-03-31T12:18:14;45.92;42.98;54.08;;
77729;Laerm;68312;53.502;10.030;2023-03-31T12:20:52;47.30;43.55;58.18;;
77729;Laerm;68312;53.502;10.030;2023-03-31T12:23:27;47.65;44.09;58.87;;
77729;Laerm;68312;53.502;10.030;2023-03-31T12:29:09;55.75;45.53;73.98;;
77729;Laerm;68312;53.502;10.030;2023-03-31T12:31:42;51.73;46.02;65.79;;
77729;Laerm;68312;53.502;10.030;2023-03-31T12:34:16;48.48;44.32;62.65;;
77729;Laerm;68312;53.502;10.030;2023-03-31T12:37:12;47.47;44.66;53.87;;
77729;Laerm;68312;53.502;10.030;2023-03-31T12:43:08;49.91;44.37;62.82;;
77729;Laerm;68312;53.502;10.030;2023-03-31T12:46:03;49.20;45.16;63.79;;
77729;Laerm;68312;53.502;10.030;2023-03-31T12:57:26;49.03;44.73;61.05;;
77729;Laerm;68312;53.502;10.030;2023-03-31T13:00:26;48.27;44.24;58.64;;
77729;Laerm;68312;53.502;10.030;2023-03-31T13:12:05;48.86;43.46;61.88;;
77729;Laerm;68312;53.502;10.030;2023-03-31T13:14:37;49.72;43.96;63.77;;
77729;Laerm;68312;53.502;10.030;2023-03-31T13:17:34;49.29;44.30;63.05;;
77729;Laerm;68312;53.502;10.030;2023-03-31T13:20:39;49.38;42.93;61.56;;
77729;Laerm;68312;53.502;10.030;2023-03-31T13:23:18;48.02;43.47;62.92;;
77729;Laerm;68312;53.502;10.030;2023-03-31T13:30:52;47.68;43.28;62.53;;
77729;Laerm;68312;53.502;10.030;2023-03-31T13:33:55;47.10;42.87;59.30;;
77729;Laerm;68312;53.502;10.030;2023-03-31T13:39:32;47.55;42.71;60.07;;
77729;Laerm;68312;53.502;10.030;2023-03-31T13:45:09;44.58;40.63;51.49;;
77729;Laerm;68312;53.502;10.030;2023-03-31T13:51:30;48.21;41.53;60.35;;
77729;Laerm;68312;53.502;10.030;2023-03-31T14:01:47;46.88;39.85;65.62;;
77729;Laerm;68312;53.502;10.030;2023-03-31T14:04:49;44.96;39.49;56.98;;
77729;Laerm;68312;53.502;10.030;2023-03-31T14:07:43;44.52;40.46;59.67;;
77729;Laerm;68312;53.502;10.030;2023-03-31T14:10:36;44.32;41.19;55.25;;
77729;Laerm;68312;53.502;10.030;2023-03-31T14:13:23;45.33;40.35;55.25;;
77729;Laerm;68312;53.502;10.030;2023-03-31T14:15:57;45.19;39.05;57.75;;
77729;Laerm;68312;53.502;10.030;2023-03-31T14:18:29;52.66;42.26;71.49;;
77729;Laerm;68312;53.502;10.030;2023-03-31T14:21:24;48.21;41.66;60.41;;
77729;Laerm;68312;53.502;10.030;2023-03-31T14:24:30;50.14;41.53;73.31;;
77729;Laerm;68312;53.502;10.030;2023-03-31T14:33:53;44.89;41.15;52.64;;
77729;Laerm;68312;53.502;10.030;2023-03-31T14:36:39;45.12;41.43;56.07;;
77729;Laerm;68312;53.502;10.030;2023-03-31T14:39:16;43.95;40.82;50.50;;
77729;Laerm;68312;53.502;10.030;2023-03-31T14:41:53;45.84;41.08;55.42;;
77729;Laerm;68312;53.502;10.030;2023-03-31T14:44:20;53.51;40.89;79.68;;
77729;Laerm;68312;53.502;10.030;2023-03-31T14:46:46;44.23;40.69;54.06;;
77729;Laerm;68312;53.502;10.030;2023-03-31T14:49:36;44.92;41.08;53.82;;
77729;Laerm;68312;53.502;10.030;2023-03-31T14:52:16;46.01;42.16;55.34;;
77729;Laerm;68312;53.502;10.030;2023-03-31T14:54:45;47.09;42.71;57.12;;
77729;Laerm;68312;53.502;10.030;2023-03-31T14:57:26;46.19;43.07;52.15;;
77729;Laerm;68312;53.502;10.030;2023-03-31T14:59:54;47.84;43.99;56.89;;
77729;Laerm;68312;53.502;10.030;2023-03-31T15:02:33;46.70;43.50;55.35;;
77729;Laerm;68312;53.502;10.030;2023-03-31T15:05:07;47.72;43.04;55.95;;
77729;Laerm;68312;53.502;10.030;2023-03-31T15:07:36;46.75;42.62;56.73;;
77729;Laerm;68312;53.502;10.030;2023-03-31T15:10:05;53.11;40.34;70.27;;
77729;Laerm;68312;53.502;10.030;2023-03-31T15:12:31;46.78;40.84;72.16;;
77729;Laerm;68312;53.502;10.030;2023-03-31T15:15:04;71.78;40.77;102.27;;
77729;Laerm;68312;53.502;10.030;2023-03-31T15:17:38;43.93;40.22;63.62;;
77729;Laerm;68312;53.502;10.030;2023-03-31T15:20:35;44.04;39.73;55.02;;
77729;Laerm;68312;53.502;10.030;2023-03-31T15:23:24;46.50;41.32;64.18;;
77729;Laerm;68312;53.502;10.030;2023-03-31T15:26:02;44.56;41.13;54.67;;
77729;Laerm;68312;53.502;10.030;2023-03-31T15:29:04;45.47;40.84;54.99;;
77729;Laerm;68312;53.502;10.030;2023-03-31T15:31:32;45.69;40.64;57.70;;
77729;Laerm;68312;53.502;10.030;2023-03-31T15:33:58;45.73;41.96;57.66;;
77729;Laerm;68312;53.502;10.030;2023-03-31T15:36:26;45.30;41.75;53.48;;
77729;Laerm;68312;53.502;10.030;2023-03-31T15:38:57;49.50;42.74;67.00;;
77729;Laerm;68312;53.502;10.030;2023-03-31T15:41:29;47.34;43.16;57.09;;
77729;Laerm;68312;53.502;10.030;2023-03-31T15:44:53;48.24;42.69;60.07;;
77729;Laerm;68312;53.502;10.030;2023-03-31T15:47:26;50.21;43.28;61.83;;
77729;Laerm;68312;53.502;10.030;2023-03-31T15:50:11;54.39;43.23;70.26;;
77729;Laerm;68312;53.502;10.030;2023-03-31T15:52:45;52.07;43.48;63.09;;
77729;Laerm;68312;53.502;10.030;2023-03-31T15:55:41;49.68;43.48;61.38;;
77729;Laerm;68312;53.502;10.030;2023-03-31T15:58:14;46.50;42.51;55.69;;
77729;Laerm;68312;53.502;10.030;2023-03-31T16:00:44;48.17;44.75;55.35;;
77729;Laerm;68312;53.502;10.030;2023-03-31T16:03:34;47.09;43.65;52.58;;
77729;Laerm;68312;53.502;10.030;2023-03-31T16:06:40;47.64;44.80;56.05;;